createdAt,value
2022-09-04T00:00:28.462Z,8.15
2022-09-04T00:01:45.438Z,9.10
2022-09-04T00:02:57.302Z,9.30
2022-09-04T00:04:10.407Z,8.50
2022-09-04T00:05:22.852Z,9.32
2022-09-04T00:06:23.915Z,6.50
2022-09-04T00:07:26.374Z,8.07
2022-09-04T00:10:01.821Z,7.18
2022-09-04T00:11:07.115Z,8.15
2022-09-04T00:12:06.154Z,7.97
2022-09-04T00:13:11.095Z,8.25
2022-09-04T00:14:40.188Z,7.40
2022-09-04T00:15:44.091Z,7.22
2022-09-04T00:16:58.451Z,7.43
2022-09-04T00:18:02.953Z,6.88
2022-09-04T00:19:37.082Z,5.25
2022-09-04T00:20:45.804Z,6.50
2022-09-04T00:21:53.030Z,8.07
2022-09-04T00:23:01.794Z,9.25
2022-09-04T00:24:02.791Z,8.35
2022-09-04T00:25:24.041Z,8.98
2022-09-04T00:26:42.504Z,8.57
2022-09-04T00:27:45.323Z,9.40
2022-09-04T00:28:45.439Z,9.32
2022-09-04T00:30:04.613Z,8.32
2022-09-04T00:31:25.884Z,8.82
2022-09-04T00:32:38.677Z,9.73
2022-09-04T00:34:07.347Z,9.38
2022-09-04T00:35:31.493Z,9.80
2022-09-04T00:36:29.505Z,9.30
2022-09-04T00:37:32.812Z,8.25
2022-09-04T00:38:41.173Z,8.50
2022-09-04T00:39:50.691Z,8.98
2022-09-04T00:40:57.341Z,9.80
2022-09-04T00:42:18.832Z,8.35
2022-09-04T00:43:57.454Z,7.97
2022-09-04T00:45:27.792Z,10.10
2022-09-04T00:47:02.172Z,11.10
2022-09-04T00:48:38.283Z,9.68
2022-09-04T00:50:09.522Z,10.18
2022-09-04T00:51:35.920Z,9.88
2022-09-04T00:52:38.569Z,10.25
2022-09-04T00:53:55.895Z,9.70
2022-09-04T00:54:58.435Z,9.68
2022-09-04T00:57:03.757Z,9.80
2022-09-04T00:58:24.148Z,7.93
2022-09-04T00:59:20.852Z,8.07
2022-09-04T01:00:19.732Z,8.07
2022-09-04T01:01:23.591Z,6.50
2022-09-04T01:02:43.753Z,5.90
2022-09-04T01:03:51.072Z,7.60
2022-09-04T01:05:21.245Z,7.05
2022-09-04T01:06:51.837Z,9.20
2022-09-04T01:07:48.467Z,5.97
2022-09-04T01:08:47.952Z,8.80
2022-09-04T01:10:09.065Z,9.35
2022-09-04T01:11:27.808Z,9.18
2022-09-04T01:12:49.080Z,7.22
2022-09-04T01:13:51.443Z,8.00
2022-09-04T01:15:03.448Z,8.93
2022-09-04T01:16:14.018Z,6.97
2022-09-04T01:17:37.443Z,8.63
2022-09-04T01:19:00.160Z,7.95
2022-09-04T01:20:14.843Z,8.43
2022-09-04T01:21:33.273Z,7.07
2022-09-04T01:23:03.633Z,9.15
2022-09-04T01:24:19.378Z,8.82
2022-09-04T01:25:31.133Z,8.27
2022-09-04T01:26:55.409Z,7.82
2022-09-04T01:28:16.944Z,8.68
2022-09-04T01:29:33.783Z,6.50
2022-09-04T01:30:43.591Z,6.78
2022-09-04T01:31:55.827Z,7.95
2022-09-04T01:33:30.219Z,7.57
2022-09-04T01:34:49.709Z,7.30
2022-09-04T01:35:58.304Z,7.55
2022-09-04T01:37:35.774Z,9.13
2022-09-04T01:38:51.075Z,7.55
2022-09-04T01:40:03.701Z,7.65
2022-09-04T01:41:15.708Z,6.93
2022-09-04T01:42:15.042Z,7.90
2022-09-04T01:43:21.330Z,7.13
2022-09-04T01:44:18.041Z,7.90
2022-09-04T01:45:28.300Z,7.15
2022-09-04T01:46:31.377Z,7.85
2022-09-04T01:47:46.927Z,8.60
2022-09-04T01:48:43.619Z,8.32
2022-09-04T01:49:49.782Z,8.40
2022-09-04T01:50:51.931Z,8.68
2022-09-04T01:51:57.944Z,12.38
2022-09-04T01:53:06.587Z,9.65
2022-09-04T01:54:37.808Z,11.55
2022-09-04T01:55:44.846Z,8.38
2022-09-04T01:56:48.468Z,8.35
2022-09-04T01:58:03.524Z,8.75
2022-09-04T01:59:20.176Z,11.25
2022-09-04T02:00:20.142Z,9.98
2022-09-04T02:01:21.121Z,13.02
2022-09-04T02:02:44.207Z,11.30
2022-09-04T02:03:56.190Z,12.90
2022-09-04T02:05:09.276Z,13.02
2022-09-04T02:07:32.515Z,10.13
2022-09-04T02:08:59.562Z,8.43
2022-09-04T02:10:27.157Z,9.07
2022-09-04T02:11:28.466Z,9.00
2022-09-04T02:12:42.520Z,8.57
2022-09-04T02:13:40.406Z,9.90
2022-09-04T02:15:01.139Z,8.07
2022-09-04T02:16:06.745Z,7.63
2022-09-04T02:17:12.886Z,8.38
2022-09-04T02:18:24.631Z,8.73
2022-09-04T02:19:35.321Z,8.30
2022-09-04T02:20:32.012Z,7.28
2022-09-04T02:21:37.042Z,8.32
2022-09-04T02:22:42.143Z,9.07
2022-09-04T02:23:52.624Z,8.30
2022-09-04T02:24:49.254Z,10.23
2022-09-04T02:25:53.536Z,10.57
2022-09-04T02:26:57.145Z,8.52
2022-09-04T02:28:20.632Z,8.75
2022-09-04T02:29:48.885Z,12.23
2022-09-04T02:30:56.541Z,13.07
2022-09-04T02:32:00.640Z,10.65
2022-09-04T02:33:18.948Z,12.35
2022-09-04T02:34:29.414Z,9.52
2022-09-04T02:35:47.873Z,9.18
2022-09-04T02:37:00.421Z,11.63
2022-09-04T02:38:17.088Z,18.23
2022-09-04T02:39:22.286Z,23.40
2022-09-04T02:40:27.683Z,20.73
2022-09-04T02:41:39.836Z,18.52
2022-09-04T02:43:02.517Z,17.65
2022-09-04T02:44:47.628Z,17.08
2022-09-04T02:46:02.729Z,16.30
2022-09-04T02:47:22.877Z,16.45
2022-09-04T02:48:35.129Z,14.68
2022-09-04T02:50:07.856Z,15.07
2022-09-04T02:51:49.006Z,11.57
2022-09-04T02:53:04.442Z,14.32
2022-09-04T02:54:25.352Z,19.13
2022-09-04T02:55:44.536Z,17.25
2022-09-04T02:57:01.807Z,19.58
2022-09-04T02:58:07.878Z,17.92
2022-09-04T02:59:42.294Z,18.98
2022-09-04T03:01:59.386Z,15.73
2022-09-04T03:03:05.500Z,13.50
2022-09-04T03:04:19.275Z,12.15
2022-09-04T03:05:26.419Z,11.25
2022-09-04T03:06:45.453Z,11.40
2022-09-04T03:08:14.033Z,12.27
2022-09-04T03:09:16.675Z,9.32
2022-09-04T03:10:18.512Z,8.63
2022-09-04T03:11:21.076Z,9.45
2022-09-04T03:13:28.259Z,10.20
2022-09-04T03:14:46.639Z,9.95
2022-09-04T03:16:10.979Z,8.65
2022-09-04T03:17:25.990Z,8.40
2022-09-04T03:18:41.065Z,9.38
2022-09-04T03:19:50.820Z,10.50
2022-09-04T03:21:12.382Z,11.35
2022-09-04T03:22:42.762Z,10.23
2022-09-04T03:23:51.886Z,8.15
2022-09-04T03:25:25.449Z,8.45
2022-09-04T03:26:29.850Z,6.80
2022-09-04T03:27:27.953Z,8.38
2022-09-04T03:28:31.161Z,12.15
2022-09-04T03:30:01.393Z,16.83
2022-09-04T03:31:02.362Z,41.67
2022-09-04T03:31:59.014Z,32.70
2022-09-04T03:33:19.329Z,26.42
2022-09-04T03:34:20.251Z,18.38
2022-09-04T03:35:29.600Z,14.38
2022-09-04T03:36:45.752Z,11.73
2022-09-04T03:38:08.752Z,10.43
2022-09-04T03:39:11.206Z,9.82
2022-09-04T03:40:35.827Z,12.07
2022-09-04T03:41:50.191Z,12.32
2022-09-04T03:42:49.702Z,12.63
2022-09-04T03:44:13.094Z,12.38
2022-09-04T03:45:40.509Z,12.82
2022-09-04T03:46:50.252Z,11.98
2022-09-04T03:48:07.146Z,11.20
2022-09-04T03:49:16.923Z,11.73
2022-09-04T03:50:43.283Z,11.02
2022-09-04T03:52:05.722Z,8.13
2022-09-04T03:53:38.149Z,9.48
2022-09-04T03:55:12.933Z,11.00
2022-09-04T03:56:33.843Z,10.43
2022-09-04T03:57:30.407Z,10.32
2022-09-04T03:58:39.778Z,11.23
2022-09-04T03:59:48.634Z,11.73
2022-09-04T04:01:09.952Z,9.00
2022-09-04T04:02:23.823Z,9.40
2022-09-04T04:03:27.050Z,9.65
2022-09-04T04:04:35.331Z,8.93
2022-09-04T04:05:38.856Z,9.23
2022-09-04T04:06:56.656Z,10.27
2022-09-04T04:07:59.022Z,11.70
2022-09-04T04:09:20.477Z,9.98
2022-09-04T04:10:25.472Z,8.93
2022-09-04T04:11:41.356Z,10.23
2022-09-04T04:12:49.954Z,7.30
2022-09-04T04:14:07.850Z,9.20
2022-09-04T04:15:13.624Z,9.50
2022-09-04T04:16:24.783Z,9.38
2022-09-04T04:17:28.212Z,8.57
2022-09-04T04:18:49.738Z,9.75
2022-09-04T04:20:07.518Z,9.27
2022-09-04T04:21:27.734Z,14.10
2022-09-04T04:22:47.493Z,166.60
2022-09-04T04:24:12.500Z,67.25
2022-09-04T04:25:27.115Z,250.45
2022-09-04T04:26:54.041Z,175.32
2022-09-04T04:28:28.928Z,24.15
2022-09-04T04:29:39.788Z,12.73
2022-09-04T04:30:47.415Z,13.45
2022-09-04T04:31:44.695Z,13.38
2022-09-04T04:32:50.306Z,13.82
2022-09-04T04:33:51.752Z,11.98
2022-09-04T04:35:03.708Z,12.65
2022-09-04T04:36:06.499Z,12.75
2022-09-04T04:37:11.534Z,12.10
2022-09-04T04:38:34.808Z,13.15
2022-09-04T04:40:00.596Z,10.32
2022-09-04T04:40:57.251Z,10.32
2022-09-04T04:42:23.059Z,9.60
2022-09-04T04:43:31.288Z,10.80
2022-09-04T04:45:07.841Z,10.38
2022-09-04T04:46:22.703Z,9.43
2022-09-04T04:47:37.929Z,9.35
2022-09-04T04:49:00.169Z,8.88
2022-09-04T04:50:19.385Z,9.40
2022-09-04T04:51:40.784Z,8.98
2022-09-04T04:52:52.409Z,9.00
2022-09-04T04:54:14.787Z,9.75
2022-09-04T04:55:21.468Z,10.65
2022-09-04T04:56:26.487Z,9.02
2022-09-04T04:57:46.273Z,7.97
2022-09-04T04:59:03.363Z,8.88
2022-09-04T05:00:16.202Z,9.68
2022-09-04T05:01:28.150Z,10.57
2022-09-04T05:02:31.611Z,10.43
2022-09-04T05:03:47.896Z,10.48
2022-09-04T05:05:15.343Z,11.95
2022-09-04T05:06:30.266Z,11.63
2022-09-04T05:07:48.697Z,11.60
2022-09-04T05:08:50.034Z,12.80
2022-09-04T05:10:29.094Z,13.55
2022-09-04T05:11:56.220Z,12.65
2022-09-04T05:13:26.841Z,11.45
2022-09-04T05:15:09.916Z,9.93
2022-09-04T05:16:18.092Z,10.68
2022-09-04T05:17:18.739Z,10.55
2022-09-04T05:18:43.595Z,10.32
2022-09-04T05:19:50.207Z,10.27
2022-09-04T05:21:19.441Z,10.20
2022-09-04T05:22:23.396Z,9.40
2022-09-04T05:23:39.681Z,10.40
2022-09-04T05:24:55.753Z,9.98
2022-09-04T05:26:19.015Z,9.40
2022-09-04T05:27:33.584Z,9.85
2022-09-04T05:28:46.113Z,10.05
2022-09-04T05:30:07.373Z,9.27
2022-09-04T05:31:19.322Z,9.48
2022-09-04T05:32:28.717Z,9.73
2022-09-04T05:33:58.615Z,9.38
2022-09-04T05:35:17.782Z,8.57
2022-09-04T05:36:24.448Z,8.75
2022-09-04T05:37:42.956Z,8.65
2022-09-04T05:38:57.634Z,8.60
2022-09-04T05:40:21.799Z,9.07
2022-09-04T05:41:52.146Z,7.40
2022-09-04T05:43:00.949Z,7.47
2022-09-04T05:44:31.478Z,7.28
2022-09-04T05:45:37.479Z,7.57
2022-09-04T05:46:55.443Z,7.47
2022-09-04T05:48:10.654Z,6.63
2022-09-04T05:49:24.653Z,7.22
2022-09-04T05:50:49.079Z,7.35
2022-09-04T05:51:45.647Z,6.90
2022-09-04T05:52:48.226Z,8.05
2022-09-04T05:54:01.934Z,8.32
2022-09-04T05:55:16.883Z,7.75
2022-09-04T05:56:38.715Z,7.63
2022-09-04T05:58:12.515Z,6.35
2022-09-04T05:59:09.147Z,6.78
2022-09-04T06:00:18.357Z,6.85
2022-09-04T06:01:39.257Z,6.53
2022-09-04T06:03:30.082Z,7.18
2022-09-04T06:04:38.488Z,8.20
2022-09-04T06:06:12.675Z,8.18
2022-09-04T06:07:27.753Z,9.05
2022-09-04T06:08:43.329Z,8.00
2022-09-04T06:09:40.548Z,8.95
2022-09-04T06:10:46.951Z,8.23
2022-09-04T06:11:51.518Z,9.35
2022-09-04T06:12:57.821Z,8.88
2022-09-04T06:13:54.382Z,8.30
2022-09-04T06:15:07.742Z,9.32
2022-09-04T06:16:16.532Z,9.02
2022-09-04T06:17:30.859Z,9.27
2022-09-04T06:18:43.369Z,9.15
2022-09-04T06:20:01.778Z,9.35
2022-09-04T06:21:20.238Z,8.82
2022-09-04T06:22:43.524Z,9.25
2022-09-04T06:24:15.524Z,8.10
2022-09-04T06:25:22.467Z,8.48
2022-09-04T06:26:35.255Z,9.05
2022-09-04T06:27:52.705Z,8.20
2022-09-04T06:29:00.479Z,8.50
2022-09-04T06:30:14.546Z,8.32
2022-09-04T06:31:29.550Z,8.57
2022-09-04T06:32:45.370Z,7.70
2022-09-04T06:34:10.677Z,7.95
2022-09-04T06:35:39.515Z,6.93
2022-09-04T06:37:05.503Z,8.05
2022-09-04T06:38:29.708Z,6.90
2022-09-04T06:39:35.368Z,8.60
2022-09-04T06:40:46.803Z,7.10
2022-09-04T06:42:19.561Z,7.00
2022-09-04T06:43:43.342Z,7.32
2022-09-04T06:45:15.083Z,6.45
2022-09-04T06:46:28.291Z,7.57
2022-09-04T06:47:46.564Z,8.93
2022-09-04T06:49:37.611Z,8.02
2022-09-04T06:50:49.091Z,7.50
2022-09-04T06:52:07.589Z,8.52
2022-09-04T06:53:18.219Z,7.90
2022-09-04T06:54:26.769Z,8.05
2022-09-04T06:55:42.617Z,8.48
2022-09-04T06:56:55.917Z,7.70
2022-09-04T06:58:15.909Z,8.10
2022-09-04T06:59:24.603Z,7.47
2022-09-04T07:00:21.897Z,8.57
2022-09-04T07:01:46.895Z,8.85
2022-09-04T07:03:25.395Z,8.32
2022-09-04T07:04:30.629Z,9.80
2022-09-04T07:05:35.704Z,9.18
2022-09-04T07:06:44.591Z,8.30
2022-09-04T07:08:05.911Z,9.73
2022-09-04T07:09:21.168Z,9.10
2022-09-04T07:10:45.748Z,8.93
2022-09-04T07:12:05.732Z,9.60
2022-09-04T07:13:23.548Z,7.85
2022-09-04T07:14:49.908Z,8.15
2022-09-04T07:15:50.202Z,8.82
2022-09-04T07:17:08.673Z,7.55
2022-09-04T07:18:42.708Z,8.10
2022-09-04T07:19:56.243Z,7.75
2022-09-04T07:21:05.235Z,9.23
2022-09-04T07:22:23.145Z,7.82
2022-09-04T07:23:36.008Z,8.70
2022-09-04T07:25:01.629Z,8.05
2022-09-04T07:26:30.073Z,9.38
2022-09-04T07:27:58.011Z,8.50
2022-09-04T07:29:09.910Z,9.07
2022-09-04T07:30:15.473Z,9.10
2022-09-04T07:31:28.865Z,9.48
2022-09-04T07:32:49.464Z,9.70
2022-09-04T07:34:27.908Z,8.95
2022-09-04T07:35:37.024Z,7.78
2022-09-04T07:36:48.625Z,8.00
2022-09-04T07:38:08.010Z,8.40
2022-09-04T07:39:58.759Z,7.90
2022-09-04T07:41:20.052Z,8.55
2022-09-04T07:42:39.005Z,9.15
2022-09-04T07:43:55.395Z,7.97
2022-09-04T07:45:00.753Z,7.80
2022-09-04T07:46:40.582Z,7.90
2022-09-04T07:47:46.096Z,7.13
2022-09-04T07:49:04.371Z,7.93
2022-09-04T07:50:12.983Z,8.93
2022-09-04T07:51:26.019Z,6.63
2022-09-04T07:52:22.883Z,6.25
2022-09-04T07:53:27.828Z,7.35
2022-09-04T07:54:48.925Z,6.93
2022-09-04T07:55:48.445Z,7.43
2022-09-04T07:56:54.604Z,6.50
2022-09-04T07:58:07.894Z,5.97
2022-09-04T07:59:27.071Z,5.90
2022-09-04T08:00:25.480Z,5.18
2022-09-04T08:01:40.701Z,6.57
2022-09-04T08:02:43.585Z,5.53
2022-09-04T08:04:03.301Z,5.10
2022-09-04T08:05:21.302Z,5.28
2022-09-04T08:06:27.573Z,5.35
2022-09-04T08:08:03.840Z,4.95
2022-09-04T08:09:33.645Z,4.63
2022-09-04T08:10:42.385Z,4.78
2022-09-04T08:12:02.088Z,5.03
2022-09-04T08:13:02.322Z,4.93
2022-09-04T08:14:11.296Z,5.30
2022-09-04T08:15:27.111Z,4.20
2022-09-04T08:16:34.360Z,5.53
2022-09-04T08:17:54.427Z,4.70
2022-09-04T08:19:15.946Z,4.07
2022-09-04T08:20:19.056Z,4.72
2022-09-04T08:21:35.781Z,4.82
2022-09-04T08:22:54.128Z,4.88
2022-09-04T08:24:15.460Z,4.40
2022-09-04T08:25:39.871Z,5.30
2022-09-04T08:26:42.249Z,5.78
2022-09-04T08:28:17.593Z,5.47
2022-09-04T08:29:40.225Z,5.53
2022-09-04T08:31:03.944Z,6.28
2022-09-04T08:33:44.817Z,4.55
2022-09-04T08:35:11.882Z,4.93
2022-09-04T08:36:16.630Z,4.82
2022-09-04T08:37:27.267Z,4.72
2022-09-04T08:38:36.771Z,5.00
2022-09-04T08:39:57.712Z,5.57
2022-09-04T08:41:31.613Z,4.85
2022-09-04T08:42:49.417Z,4.80
2022-09-04T08:44:14.017Z,5.07
2022-09-04T08:45:42.191Z,4.78
2022-09-04T08:46:58.324Z,5.50
2022-09-04T08:48:24.516Z,4.70
2022-09-04T08:49:47.048Z,5.65
2022-09-04T08:51:29.304Z,4.93
2022-09-04T08:52:53.669Z,5.10
2022-09-04T08:54:40.730Z,4.53
2022-09-04T08:56:06.427Z,4.90
2022-09-04T08:57:37.633Z,5.55
2022-09-04T08:58:47.745Z,5.15
2022-09-04T08:59:56.753Z,4.80
2022-09-04T09:00:55.352Z,4.40
2022-09-04T09:02:10.094Z,4.65
2022-09-04T09:03:48.123Z,5.03
2022-09-04T09:04:47.857Z,4.03
2022-09-04T09:06:25.686Z,4.95
2022-09-04T09:07:46.727Z,5.35
2022-09-04T09:09:19.923Z,4.47
2022-09-04T09:10:45.403Z,4.60
2022-09-04T09:12:09.427Z,4.32
2022-09-04T09:13:21.133Z,4.40
2022-09-04T09:15:02.108Z,5.30
2022-09-04T09:16:22.363Z,4.30
2022-09-04T09:17:57.906Z,3.85
2022-09-04T09:19:23.254Z,5.10
2022-09-04T09:20:25.707Z,4.75
2022-09-04T09:22:51.229Z,4.68
2022-09-04T09:24:00.499Z,4.55
2022-09-04T09:25:12.340Z,4.70
2022-09-04T09:26:24.504Z,4.05
2022-09-04T09:27:56.059Z,4.05
2022-09-04T09:29:01.548Z,3.70
2022-09-04T09:30:13.033Z,3.90
2022-09-04T09:31:13.009Z,4.25
2022-09-04T09:32:18.896Z,4.93
2022-09-04T09:33:48.330Z,4.38
2022-09-04T09:35:03.520Z,4.32
2022-09-04T09:36:20.245Z,4.03
2022-09-04T09:37:47.469Z,4.20
2022-09-04T09:39:02.493Z,3.80
2022-09-04T09:40:31.919Z,4.20
2022-09-04T09:42:05.819Z,5.00
2022-09-04T09:43:12.889Z,4.18
2022-09-04T09:44:15.756Z,5.20
2022-09-04T09:45:36.113Z,3.90
2022-09-04T09:46:54.273Z,3.80
2022-09-04T09:47:56.670Z,4.30
2022-09-04T09:49:14.773Z,5.32
2022-09-04T09:50:42.643Z,5.82
2022-09-04T09:51:45.350Z,4.45
2022-09-04T09:53:12.506Z,4.07
2022-09-04T09:54:14.799Z,4.22
2022-09-04T09:55:29.293Z,4.25
2022-09-04T09:56:25.898Z,3.90
2022-09-04T09:57:44.089Z,3.88
2022-09-04T09:59:14.760Z,3.90
2022-09-04T10:00:15.589Z,3.72
2022-09-04T10:01:24.777Z,3.65
2022-09-04T10:02:46.399Z,3.40
2022-09-04T10:03:49.100Z,3.47
2022-09-04T10:05:00.017Z,3.50
2022-09-04T10:06:11.723Z,3.60
2022-09-04T10:07:27.230Z,3.30
2022-09-04T10:08:45.420Z,3.22
2022-09-04T10:10:04.678Z,3.65
2022-09-04T10:11:29.268Z,3.00
2022-09-04T10:12:56.514Z,3.30
2022-09-04T10:14:29.440Z,3.20
2022-09-04T10:15:39.083Z,3.55
2022-09-04T10:16:48.073Z,3.15
2022-09-04T10:18:01.030Z,3.50
2022-09-04T10:19:19.041Z,3.72
2022-09-04T10:20:40.430Z,3.22
2022-09-04T10:22:02.163Z,3.90
2022-09-04T10:23:26.613Z,3.55
2022-09-04T10:24:38.207Z,3.60
2022-09-04T10:25:37.681Z,3.10
2022-09-04T10:27:02.278Z,3.60
2022-09-04T10:28:35.486Z,3.40
2022-09-04T10:29:59.543Z,3.30
2022-09-04T10:31:27.043Z,3.75
2022-09-04T10:32:33.037Z,4.00
2022-09-04T10:33:47.838Z,3.70
2022-09-04T10:35:03.293Z,3.58
2022-09-04T10:36:27.912Z,3.28
2022-09-04T10:37:33.504Z,3.75
2022-09-04T10:39:01.117Z,4.03
2022-09-04T10:40:29.562Z,4.07
2022-09-04T10:41:47.752Z,3.85
2022-09-04T10:42:47.211Z,3.58
2022-09-04T10:44:01.655Z,2.90
2022-09-04T10:45:06.733Z,3.42
2022-09-04T10:46:26.255Z,3.15
2022-09-04T10:47:28.086Z,3.65
2022-09-04T10:48:58.839Z,3.58
2022-09-04T10:50:13.519Z,4.43
2022-09-04T10:51:34.702Z,3.50
2022-09-04T10:53:10.946Z,4.00
2022-09-04T10:54:16.951Z,3.15
2022-09-04T10:55:37.832Z,4.03
2022-09-04T10:56:57.516Z,4.07
2022-09-04T10:58:29.200Z,3.63
2022-09-04T11:00:00.848Z,3.80
2022-09-04T11:01:19.077Z,3.50
2022-09-04T11:02:37.477Z,3.50
2022-09-04T11:03:38.273Z,3.65
2022-09-04T11:05:03.409Z,3.28
2022-09-04T11:06:15.687Z,3.95
2022-09-04T11:07:23.667Z,3.10
2022-09-04T11:08:36.492Z,3.80
2022-09-04T11:10:05.520Z,3.33
2022-09-04T11:11:20.673Z,3.60
2022-09-04T11:12:28.878Z,3.40
2022-09-04T11:14:06.500Z,3.60
2022-09-04T11:15:15.497Z,3.92
2022-09-04T11:16:21.224Z,3.72
2022-09-04T11:17:55.750Z,3.67
2022-09-04T11:19:14.266Z,3.30
2022-09-04T11:20:49.147Z,3.40
2022-09-04T11:22:19.515Z,3.63
2022-09-04T11:23:34.587Z,3.75
2022-09-04T11:25:00.094Z,3.80
2022-09-04T11:26:10.202Z,3.22
2022-09-04T11:27:20.379Z,4.25
2022-09-04T11:28:51.756Z,3.13
2022-09-04T11:30:02.314Z,3.05
2022-09-04T11:31:13.306Z,3.17
2022-09-04T11:32:42.668Z,3.13
2022-09-04T11:33:57.748Z,3.17
2022-09-04T11:35:32.226Z,3.10
2022-09-04T11:36:53.414Z,3.25
2022-09-04T11:37:57.808Z,3.05
2022-09-04T11:38:54.774Z,3.17
2022-09-04T11:40:18.297Z,3.03
2022-09-04T11:41:43.366Z,3.58
2022-09-04T11:43:18.690Z,3.13
2022-09-04T11:45:07.563Z,2.67
2022-09-04T11:46:33.631Z,2.83
2022-09-04T11:47:56.848Z,3.08
2022-09-04T11:49:05.268Z,2.78
2022-09-04T11:50:35.225Z,3.05
2022-09-04T11:52:02.291Z,2.90
2022-09-04T11:53:20.192Z,3.15
2022-09-04T11:54:24.133Z,3.30
2022-09-04T11:55:48.314Z,3.17
2022-09-04T11:57:07.234Z,3.30
2022-09-04T11:58:20.796Z,3.92
2022-09-04T11:59:38.506Z,3.65
2022-09-04T12:01:00.460Z,3.25
2022-09-04T12:02:34.585Z,3.42
2022-09-04T12:05:19.192Z,3.38
2022-09-04T12:06:44.038Z,7.15
2022-09-04T12:08:25.153Z,3.13
2022-09-04T12:09:30.884Z,7.25
2022-09-04T12:11:02.949Z,5.43
2022-09-04T12:12:31.562Z,3.30
2022-09-04T12:13:47.214Z,3.35
2022-09-04T12:14:58.529Z,2.92
2022-09-04T12:16:28.132Z,2.95
2022-09-04T12:17:50.178Z,3.00
2022-09-04T12:19:02.112Z,2.50
2022-09-04T12:20:24.161Z,2.67
2022-09-04T12:21:58.294Z,2.90
2022-09-04T12:23:12.848Z,3.05
2022-09-04T12:24:46.742Z,2.78
2022-09-04T12:26:02.195Z,2.70
2022-09-04T12:27:12.874Z,2.60
2022-09-04T12:28:46.863Z,2.47
2022-09-04T12:29:58.663Z,2.60
2022-09-04T12:31:16.495Z,2.67
2022-09-04T12:32:15.844Z,2.35
2022-09-04T12:33:27.729Z,2.13
2022-09-04T12:34:54.564Z,2.22
2022-09-04T12:36:22.345Z,2.35
2022-09-04T12:37:19.960Z,2.20
2022-09-04T12:38:35.986Z,2.00
2022-09-04T12:39:53.169Z,2.00
2022-09-04T12:41:16.752Z,2.30
2022-09-04T12:42:36.425Z,2.15
2022-09-04T12:43:38.951Z,2.22
2022-09-04T12:44:51.383Z,2.45
2022-09-04T12:45:47.980Z,2.45
2022-09-04T12:46:50.432Z,2.33
2022-09-04T12:49:10.719Z,1.92
2022-09-04T12:50:28.329Z,2.30
2022-09-04T12:51:35.960Z,2.67
2022-09-04T12:52:38.225Z,2.38
2022-09-04T12:53:52.900Z,2.97
2022-09-04T12:55:05.098Z,2.20
2022-09-04T12:56:30.383Z,2.13
2022-09-04T12:57:27.031Z,2.53
2022-09-04T12:59:07.517Z,2.90
2022-09-04T13:00:17.565Z,2.15
2022-09-04T13:01:45.081Z,2.67
2022-09-04T13:03:12.191Z,2.60
2022-09-04T13:04:31.327Z,2.22
2022-09-04T13:05:53.615Z,2.47
2022-09-04T13:06:59.464Z,2.35
2022-09-04T13:08:05.367Z,2.75
2022-09-04T13:09:23.843Z,2.53
2022-09-04T13:10:49.165Z,2.28
2022-09-04T13:12:15.741Z,2.50
2022-09-04T13:13:18.210Z,2.60
2022-09-04T13:15:39.480Z,2.60
2022-09-04T13:16:57.245Z,2.50
2022-09-04T13:18:07.618Z,2.63
2022-09-04T13:19:04.223Z,2.80
2022-09-04T13:20:16.686Z,2.50
2022-09-04T13:21:27.477Z,2.47
2022-09-04T13:22:26.747Z,2.83
2022-09-04T13:23:26.884Z,2.60
2022-09-04T13:24:31.845Z,2.63
2022-09-04T13:25:50.835Z,2.47
2022-09-04T13:27:07.801Z,2.67
2022-09-04T13:28:35.937Z,2.53
2022-09-04T13:29:35.337Z,2.83
2022-09-04T13:30:35.354Z,2.47
2022-09-04T13:31:50.184Z,2.08
2022-09-04T13:33:10.237Z,2.60
2022-09-04T13:34:48.499Z,2.72
2022-09-04T13:35:59.281Z,2.30
2022-09-04T13:37:08.049Z,2.58
2022-09-04T13:38:04.701Z,2.42
2022-09-04T13:39:07.336Z,2.28
2022-09-04T13:40:26.411Z,2.45
2022-09-04T13:42:01.048Z,2.70
2022-09-04T13:43:40.590Z,2.50
2022-09-04T13:45:05.661Z,2.35
2022-09-04T13:46:14.997Z,2.72
2022-09-04T13:47:22.951Z,2.60
2022-09-04T13:48:52.248Z,2.50
2022-09-04T13:49:56.653Z,2.53
2022-09-04T13:50:57.999Z,2.42
2022-09-04T13:52:02.350Z,2.50
2022-09-04T13:53:18.558Z,2.42
2022-09-04T13:54:32.174Z,2.88
2022-09-04T13:55:39.230Z,3.00
2022-09-04T13:56:58.869Z,2.63
2022-09-04T13:58:01.625Z,2.50
2022-09-04T13:59:08.625Z,2.90
2022-09-04T14:00:08.955Z,2.53
2022-09-04T14:01:13.495Z,2.25
2022-09-04T14:02:14.721Z,2.78
2022-09-04T14:03:40.320Z,2.55
2022-09-04T14:04:48.918Z,2.78
2022-09-04T14:05:46.022Z,2.30
2022-09-04T14:06:44.528Z,2.63
2022-09-04T14:07:45.530Z,2.35
2022-09-04T14:08:44.806Z,2.70
2022-09-04T14:09:49.529Z,2.70
2022-09-04T14:10:52.005Z,2.83
2022-09-04T14:13:13.237Z,3.03
2022-09-04T14:14:21.673Z,3.03
2022-09-04T14:15:28.506Z,2.58
2022-09-04T14:16:25.487Z,3.05
2022-09-04T14:17:29.689Z,2.65
2022-09-04T14:18:47.453Z,3.05
2022-09-04T14:20:12.262Z,2.60
2022-09-04T14:21:24.381Z,2.60
2022-09-04T14:22:52.146Z,2.80
2022-09-04T14:23:57.336Z,2.80
2022-09-04T14:25:11.563Z,3.08
2022-09-04T14:26:24.579Z,2.85
2022-09-04T14:27:27.289Z,3.00
2022-09-04T14:28:45.107Z,2.90
2022-09-04T14:30:10.182Z,2.72
2022-09-04T14:31:10.650Z,2.92
2022-09-04T14:32:41.225Z,2.78
2022-09-04T14:33:53.504Z,2.92
2022-09-04T14:35:02.971Z,2.75
2022-09-04T14:36:21.866Z,2.60
2022-09-04T14:37:48.456Z,2.78
2022-09-04T14:39:06.965Z,2.88
2022-09-04T14:40:34.322Z,2.92
2022-09-04T14:41:55.449Z,3.00
2022-09-04T14:42:58.477Z,3.10
2022-09-04T14:44:13.532Z,2.70
2022-09-04T14:45:33.484Z,3.00
2022-09-04T14:47:05.538Z,2.92
2022-09-04T14:48:12.235Z,2.90
2022-09-04T14:49:15.243Z,2.83
2022-09-04T14:50:15.426Z,2.80
2022-09-04T14:51:31.039Z,2.85
2022-09-04T14:52:39.933Z,2.70
2022-09-04T14:53:36.991Z,2.10
2022-09-04T14:54:39.466Z,2.45
2022-09-04T14:56:53.173Z,2.78
2022-09-04T14:57:51.533Z,3.00
2022-09-04T14:59:07.186Z,2.78
2022-09-04T15:00:20.968Z,2.95
2022-09-04T15:01:25.846Z,2.65
2022-09-04T15:02:33.349Z,2.90
2022-09-04T15:03:56.367Z,2.80
2022-09-04T15:04:59.178Z,2.88
2022-09-04T15:06:01.892Z,2.97
2022-09-04T15:07:16.741Z,2.80
2022-09-04T15:08:40.155Z,2.80
2022-09-04T15:09:50.102Z,3.00
2022-09-04T15:10:54.345Z,2.80
2022-09-04T15:12:23.077Z,2.90
2022-09-04T15:13:28.853Z,2.80
2022-09-04T15:14:36.815Z,2.83
2022-09-04T15:15:40.361Z,3.20
2022-09-04T15:16:39.852Z,3.00
2022-09-04T15:17:46.940Z,2.95
2022-09-04T15:18:51.757Z,2.95
2022-09-04T15:19:55.510Z,3.75
2022-09-04T15:21:05.385Z,2.90
2022-09-04T15:22:27.146Z,3.20
2022-09-04T15:23:29.915Z,3.00
2022-09-04T15:24:35.557Z,3.05
2022-09-04T15:25:58.129Z,3.33
2022-09-04T15:27:20.169Z,3.50
2022-09-04T15:28:30.696Z,3.40
2022-09-04T15:29:49.452Z,3.25
2022-09-04T15:31:00.541Z,2.80
2022-09-04T15:32:03.956Z,2.90
2022-09-04T15:33:12.026Z,3.92
2022-09-04T15:34:20.847Z,3.15
2022-09-04T15:35:20.824Z,2.92
2022-09-04T15:36:22.749Z,3.17
2022-09-04T15:37:28.418Z,2.97
2022-09-04T15:38:28.089Z,3.05
2022-09-04T15:39:36.817Z,3.28
2022-09-04T15:40:59.613Z,3.20
2022-09-04T15:42:01.401Z,3.20
2022-09-04T15:43:16.381Z,3.25
2022-09-04T15:44:32.952Z,3.17
2022-09-04T15:45:42.857Z,2.90
2022-09-04T15:47:17.225Z,3.13
2022-09-04T15:49:24.469Z,3.67
2022-09-04T15:50:26.609Z,2.92
2022-09-04T15:51:31.911Z,3.45
2022-09-04T15:52:43.147Z,3.00
2022-09-04T15:53:49.419Z,2.80
2022-09-04T15:54:45.978Z,3.03
2022-09-04T15:55:46.135Z,3.60
2022-09-04T15:56:46.686Z,3.30
2022-09-04T15:58:02.313Z,3.58
2022-09-04T15:59:27.766Z,3.47
2022-09-04T16:00:27.391Z,3.30
2022-09-04T16:01:29.983Z,2.95
2022-09-04T16:02:36.307Z,3.15
2022-09-04T16:04:12.607Z,2.85
2022-09-04T16:05:25.208Z,3.20
2022-09-04T16:06:31.768Z,3.22
2022-09-04T16:07:47.680Z,3.58
2022-09-04T16:09:01.266Z,3.15
2022-09-04T16:10:11.780Z,3.35
2022-09-04T16:11:42.444Z,2.90
2022-09-04T16:12:50.954Z,3.40
2022-09-04T16:13:50.414Z,3.15
2022-09-04T16:15:12.494Z,3.33
2022-09-04T16:16:14.253Z,2.92
2022-09-04T16:17:46.010Z,3.10
2022-09-04T16:18:47.192Z,3.30
2022-09-04T16:19:54.001Z,3.03
2022-09-04T16:21:04.273Z,3.40
2022-09-04T16:22:16.402Z,3.30
2022-09-04T16:23:17.248Z,3.13
2022-09-04T16:24:18.425Z,3.25
2022-09-04T16:25:24.307Z,3.13
2022-09-04T16:26:29.182Z,3.20
2022-09-04T16:27:29.272Z,3.58
2022-09-04T16:28:34.479Z,3.40
2022-09-04T16:29:44.711Z,2.70
2022-09-04T16:30:47.212Z,3.47
2022-09-04T16:31:52.409Z,3.42
2022-09-04T16:32:49.151Z,2.90
2022-09-04T16:33:51.032Z,3.03
2022-09-04T16:35:09.476Z,3.17
2022-09-04T16:36:06.336Z,3.50
2022-09-04T16:37:12.923Z,3.22
2022-09-04T16:38:24.191Z,3.47
2022-09-04T16:40:01.422Z,3.35
2022-09-04T16:41:06.455Z,3.40
2022-09-04T16:42:24.543Z,3.38
2022-09-04T16:43:25.768Z,3.92
2022-09-04T16:44:39.976Z,3.65
2022-09-04T16:45:45.369Z,3.67
2022-09-04T16:47:10.561Z,3.72